Fai una donazione per la manutenzione ed il rinnovamento della strumentazione meteorologica e per il sito che la ospita.


Webcam more information Webcam



altri nostri siti meteo:

Previsioni audio clicca per ascoltarePrevisioni audio

RISCHIO INCENDIRischio incendi

PomeziameteoSito sul meteo

MeteopomeziaSito sul meteo

Pomeziameteo DashboardSito sul meteo

Caput FrigorisSito sul meteo

BarcellonameteoSito sul meteo

MeteoipassiSito sul meteo

TortoretometeolidoSito sul meteo

CastelnuovovomanometeoSito sul meteo

MeteogonzagaSito sul meteo

MeteonetworkInvio dai a Meteonetwork

Weather UndergroundInvio dai a Weather Underground



Wind From: 11-04-2021 09:00 Until: 18:59 warning for: Wind Level: Yellow info button

Report METAR

   
LIRV - Viterbo (it-Mil), Italy
Distanza dalla stazione: W 4 km
Dati ricevuti: 11-04-2021 13:55
Molto nuvoloso  
Molto nuvoloso  
   Vento: Sud 27.8 km/h
Vento: Sud 27.8 km/h
Temperatura: 13°C
P.to Rugiada: 11°C
Umidita: 88%
Barometro: 1019 hPa
Nuvole: Molto nuvoloso
Visibilita: 7 km
dettagli cloud: Parzialmente nuvoloso 457.2 m,
Molto nuvoloso 609.6 m
LIRV 111155Z 18015KT 7000 SCT015 BKN020 13/11 Q1019
LIQN - Rieti, Italy
Distanza dalla stazione: E 59 km
Dati ricevuti: 11-04-2021 13:50
Molto nuvoloso  
Molto nuvoloso  
   Vento: S 9.3 km/h
Vento: S 9.3 km/h
Temperatura: 15°C
P.to Rugiada: 7°C
Umidita: 59%
Barometro: 1019 hPa
Nuvole: Molto nuvoloso
Visibilita: oltre 10 km
dettagli cloud: Molto nuvoloso 1371.6 m
LIQN 111150Z 20005KT 9999 BKN045 15/07 Q1019
LIRU - Rome/Urbe (it-Af, Italy
Distanza dalla stazione: S 61 km
Dati ricevuti: 11-04-2021 13:50
Parzialmente nuvoloso  
Parzialmente nuvoloso  
   Vento: Sud 16.7 km/h
Vento: Sud 16.7 km/h
Temperatura: 16°C
P.to Rugiada: 10°C
Umidita: 68%
Barometro: 1020 hPa
Nuvole: Parzialmente nuvoloso
Visibilita: oltre 10 km
dettagli cloud: Parzialmente nuvoloso 1219.2 m
LIRU 111150Z 17009KT 140V200 9999 SCT040 16/10 Q1020
LIRG - Guidonia (it-Afb, Italy
Distanza dalla stazione: SE 68 km
Dati ricevuti: 09-04-2021 19:55
DATI Obsoleti
Sereno  
Sereno  
   Vento: W 14.8 km/h
Vento: W 14.8 km/h
Temperatura: 13°C
P.to Rugiada: 1°C
Umidita: 44%
Barometro: 1027 hPa
Visibilita: oltre 10 km
dettagli cloud: Sereno
LIRG 091755Z 24008KT CAVOK 13/01 Q1027
LIRK - Terminillo Mount, Italy
Distanza dalla stazione: E 70 km
Dati ricevuti: 11-04-2021 13:55
  
  
   Vento: W 14.8 km/h
Vento: W 14.8 km/h
Temperatura: 2°C
Temperatura Vento: -2°C
P.to Rugiada: 2°C
Umidita: 100%
Barometro: 1021 hPa
LIRK 111155Z AUTO 29008KT 220V340 //// 02/02 Q1021
 

Script sviluppato da  Saratoga-weather.org Adattato per il modello da  Weerstation Leuven

Strumentazione usata:

Stazione meteo
Davis VP2

Programma gestore dati meteo
WVIEW

Server per i dati meteo
WDS-5

Davis VP2

WVIEW

WDS-5